Airfield :
LOGIN :

Register | Disclaimer

   EN    FR    IT 

 










Legend :    VFR   Marginal VFR   IFR   Intensive IFR   Very Intensive IFR
Visi :
Ceiling :
>= 8 km
>= 3000ft
5 to 8 km
1000 to 3000 ft
1500m to 5 km
500 to 1000 ft
800 to 1500m
200 to 500 ft
< 800m
< 200 ft
Symbols :   Thunderstorms  Fog  Heavy snow  Heavy precipitations  Wind > 20 kt
SIGMETs :     Misc.  Thunderstorms  Icing  Turbulence  Mountain Waves  Volcanic Ashes







- Airport Elevation : 309 ft
- IATA code : FNI
- Download approach charts


LFTW - Nîmes Garons

CURRENT METAR :
  • 260930Z AUTO 02014KT 340V050 CAVOK 23/10 Q1014 TEMPO 36015G25KT

EXPIRED METARs :
  • 260900Z AUTO 01015KT 340V040 CAVOK 22/09 Q1014 TEMPO 36015G25KT
  • 260830Z AUTO 01014KT 340V050 CAVOK 21/10 Q1014 TEMPO 36015G25KT
  • 260800Z AUTO 01014KT CAVOK 21/10 Q1014 TEMPO 36015G30KT
  • 260730Z AUTO 01015KT CAVOK 20/10 Q1014 TEMPO 36015G30KT
  • 260700Z AUTO 36012KT CAVOK 20/10 Q1014 TEMPO 36015G30KT

TAF TAF LFTW
Valid from the 26 at 09:00 until the 27 at 09:00 UTC


260800Z 2609/2709 36012KT CAVOK
TEMPO 2609/2709 36015G25KT
No reported NOTAMs for that airfield.
2 SIGMETs reported for the Marseille FIR (LFMM) :
 
Severe turbulence
LFMM SIGMET 3 VALID 261100/261500 LFPW
LFMM MARSEILLE FIR/UIR SEV TURB FCST WI N3900 E00545 - N3900 E00430 - N4200 E00430 - N4630 E00600 - N4630 E00700 - N4415 E00700 - N3900 E00545 FL240/320 STNR NC=
Severe turbulence
LFMM SIGMET 2 VALID 260700/261100 LFPW
LFMM MARSEILLE FIR/UIR SEV TURB FCST WI N3900 E00600 - N3900 E00430 - N4145 E00430 - N4630 E00600 - N4630 E00700 - N4415 E00700 - N3900 E00600 FL220/310 STNR NC=



MET'MAP, your aeronautical weather chart ! - Copyright ORBIFLY December 2007 - Disclaimer

ORBIFLY MET'MAP TEAM :

Programming & Development : Alexandra Zaïnal
Concept & Development : Baudouin d'Aumeries
Co-Development & Prog : Marc-Olivier Méhu
Technical & hardware support : Manuel Goepfert

Contact : metmap@orbifly.com




SOURCES & CREDITS :

   NOAA